createdAt,value
2023-01-05T00:01:18.332Z,19.125
2023-01-05T00:04:17.735Z,17.2625
2023-01-05T00:07:17.243Z,12.5375
2023-01-05T00:31:16.589Z,24.7625
2023-01-05T00:34:16.811Z,18.75
2023-01-05T00:37:16.771Z,20.0625
2023-01-05T00:41:16.705Z,14.175
2023-01-05T00:44:17.006Z,18.2125
2023-01-05T00:47:17.460Z,19.125
2023-01-05T00:51:16.381Z,18.05
2023-01-05T00:54:16.762Z,13.475000000000001
2023-01-05T00:57:17.135Z,14.3375
2023-01-05T01:01:16.853Z,15.424999999999999
2023-01-05T01:04:18.220Z,14.725000000000001
2023-01-05T01:07:17.125Z,13.4375
2023-01-05T01:11:17.343Z,18.4125
2023-01-05T01:14:17.663Z,13.7
2023-01-05T01:17:17.237Z,20.675
2023-01-05T01:21:16.408Z,18.175
2023-01-05T01:24:18.542Z,16.4875
2023-01-05T01:27:16.785Z,20.025
2023-01-05T01:31:16.608Z,17.65
2023-01-05T01:34:17.187Z,16.15
2023-01-05T01:37:16.878Z,16.974999999999998
2023-01-05T01:41:16.877Z,17.575
2023-01-05T01:44:52.905Z,12.9375
2023-01-05T01:47:23.735Z,15.0625
2023-01-05T01:51:20.520Z,15
2023-01-05T01:54:18.264Z,12.8625
2023-01-05T01:57:17.179Z,12.55
2023-01-05T02:01:17.005Z,16.9625
2023-01-05T02:04:17.549Z,12.4125
2023-01-05T02:07:16.974Z,15.175
2023-01-05T02:11:29.376Z,16.4375
2023-01-05T02:14:26.270Z,18.5125
2023-01-05T02:17:27.928Z,17.700000000000003
2023-01-05T02:21:26.728Z,15.825
2023-01-05T02:24:39.678Z,18.2625
2023-01-05T02:27:44.969Z,14
2023-01-05T02:31:21.092Z,21.7125
2023-01-05T02:34:24.624Z,18.737499999999997
2023-01-05T02:37:25.456Z,19.05
2023-01-05T02:41:22.387Z,25.2125
2023-01-05T02:44:17.340Z,22.0875
2023-01-05T02:47:37.643Z,21.737499999999997
2023-01-05T02:51:22.730Z,24.25
2023-01-05T02:54:23.522Z,16.7125
2023-01-05T02:57:21.717Z,17.1875
2023-01-05T03:01:24.018Z,22.7
2023-01-05T03:04:23.204Z,21.15
2023-01-05T03:21:16.318Z,15.1375
2023-01-05T03:41:19.641Z,22.237499999999997
2023-01-05T03:44:16.516Z,21.637500000000003
2023-01-05T03:47:16.636Z,16.75
2023-01-05T03:51:16.962Z,17.525
2023-01-05T03:54:16.852Z,19.05
2023-01-05T03:57:17.711Z,16.525
2023-01-05T04:01:16.666Z,14.5375
2023-01-05T04:04:16.653Z,9.8375
2023-01-05T04:07:16.788Z,14.7
2023-01-05T04:11:18.495Z,12.2125
2023-01-05T04:14:16.572Z,15.475
2023-01-05T04:17:16.447Z,16.95
2023-01-05T04:21:16.495Z,16.0125
2023-01-05T04:24:16.774Z,16.4125
2023-01-05T04:27:16.829Z,12.175
2023-01-05T04:31:16.328Z,8.3125
2023-01-05T04:34:16.759Z,11.575
2023-01-05T04:37:16.585Z,11.7875
2023-01-05T04:41:16.436Z,11.450000000000001
2023-01-05T04:44:16.846Z,10.0625
2023-01-05T04:47:16.794Z,10.4875
2023-01-05T04:51:16.219Z,10.512500000000001
2023-01-05T04:54:17.777Z,7.9375
2023-01-05T04:57:16.480Z,17.325
2023-01-05T05:01:17.030Z,14.4125
2023-01-05T05:04:17.143Z,24.05
2023-01-05T05:07:17.587Z,9.75
2023-01-05T05:11:16.816Z,16.5625
2023-01-05T05:14:17.238Z,16.6125
2023-01-05T05:17:17.115Z,17.625
2023-01-05T05:21:16.161Z,16.1875
2023-01-05T05:24:16.364Z,16.4875
2023-01-05T05:27:16.501Z,16.0125
2023-01-05T05:31:16.666Z,13.1875
2023-01-05T05:34:16.998Z,13.4375
2023-01-05T05:37:16.884Z,18.5
2023-01-05T05:41:17.128Z,13.75
2023-01-05T05:44:17.462Z,14.1
2023-01-05T05:47:17.355Z,12.7375
2023-01-05T05:51:16.704Z,14.9875
2023-01-05T05:54:17.270Z,11.7125
2023-01-05T05:57:17.895Z,15.15
2023-01-05T06:01:16.630Z,10.475
2023-01-05T06:04:18.728Z,9.4375
2023-01-05T06:07:16.975Z,12.225
2023-01-05T06:11:16.799Z,20.137500000000003
2023-01-05T06:14:17.419Z,16.5625
2023-01-05T06:17:17.104Z,16.5625
2023-01-05T06:21:17.030Z,16.349999999999998
2023-01-05T06:24:17.354Z,12.2375
2023-01-05T06:27:17.201Z,10.8625
2023-01-05T06:31:16.618Z,16.325
2023-01-05T06:34:16.872Z,12.65
2023-01-05T06:37:16.988Z,9.2875
2023-01-05T06:41:16.217Z,10.925
2023-01-05T06:44:16.491Z,12.4875
2023-01-05T06:47:17.191Z,13.387500000000001
2023-01-05T06:51:16.790Z,14.2375
2023-01-05T06:54:17.415Z,12.3625
2023-01-05T06:57:17.403Z,9.6
2023-01-05T07:01:16.937Z,18.7875
2023-01-05T07:04:17.432Z,37.9125
2023-01-05T07:07:17.089Z,27.7375
2023-01-05T07:11:16.837Z,22.362499999999997
2023-01-05T07:14:17.799Z,21.237499999999997
2023-01-05T07:17:17.121Z,13.1875
2023-01-05T07:21:16.787Z,11.462499999999999
2023-01-05T07:24:17.103Z,24.512500000000003
2023-01-05T07:27:16.963Z,21.9375
2023-01-05T07:31:16.286Z,18.475
2023-01-05T07:34:16.416Z,19.0875
2023-01-05T07:37:16.345Z,22.5
2023-01-05T07:41:16.274Z,14.549999999999999
2023-01-05T07:44:16.647Z,18.15
2023-01-05T07:47:16.611Z,35.2375
2023-01-05T07:51:16.124Z,15
2023-01-05T07:54:16.300Z,12.875
2023-01-05T07:57:16.353Z,14.850000000000001
2023-01-05T08:01:16.427Z,18.4625
2023-01-05T08:04:16.996Z,16.674999999999997
2023-01-05T08:07:16.440Z,19.049999999999997
2023-01-05T08:11:17.810Z,29.237500000000004
2023-01-05T08:14:17.106Z,20.287499999999998
2023-01-05T08:17:17.026Z,16.4
2023-01-05T08:21:16.447Z,28.6625
2023-01-05T08:24:16.595Z,28.875
2023-01-05T08:27:16.700Z,22.75
2023-01-05T08:31:20.022Z,23.625
2023-01-05T08:34:17.415Z,18.9
2023-01-05T08:37:17.379Z,23.4625
2023-01-05T08:41:18.397Z,14.2875
2023-01-05T08:44:16.982Z,15.0125
2023-01-05T08:47:18.411Z,17.075000000000003
2023-01-05T08:51:17.669Z,25.575
2023-01-05T08:54:17.314Z,21.25
2023-01-05T08:57:17.196Z,23.6625
2023-01-05T09:01:18.514Z,23.1375
2023-01-05T09:04:16.862Z,29.3875
2023-01-05T09:07:16.601Z,20.7875
2023-01-05T09:11:19.180Z,19.3875
2023-01-05T09:14:18.256Z,20.6875
2023-01-05T09:17:17.041Z,21.275
2023-01-05T09:21:17.159Z,26.7625
2023-01-05T09:24:17.245Z,25.4125
2023-01-05T09:27:16.817Z,24.2875
2023-01-05T09:31:18.356Z,21.337500000000002
2023-01-05T09:34:17.001Z,7.887500000000001
2023-01-05T09:37:16.913Z,8.65
2023-01-05T09:41:21.927Z,12.625
2023-01-05T09:44:27.601Z,9.4
2023-01-05T09:47:26.518Z,9.274999999999999
2023-01-05T09:51:16.442Z,10.5375
2023-01-05T09:54:18.956Z,9.6875
2023-01-05T09:57:19.638Z,9.0625
2023-01-05T10:01:18.415Z,14
2023-01-05T10:04:25.221Z,14.875
2023-01-05T10:07:23.695Z,11.4375
2023-01-05T10:21:27.205Z,13.425
2023-01-05T10:24:27.024Z,13.25
2023-01-05T10:27:25.561Z,13.8
2023-01-05T10:31:22.954Z,11.924999999999999
2023-01-05T10:34:22.571Z,13.200000000000001
2023-01-05T10:37:33.277Z,10.4125
2023-01-05T10:41:26.393Z,10.325
2023-01-05T10:44:39.464Z,10.2375
2023-01-05T10:47:17.432Z,12.675
2023-01-05T10:51:17.611Z,14.649999999999999
2023-01-05T10:54:25.903Z,12.2375
2023-01-05T10:57:49.442Z,15.7625
2023-01-05T11:01:23.730Z,8.1625
2023-01-05T11:04:34.881Z,7.9875
2023-01-05T11:07:17.339Z,7.1125
2023-01-05T11:11:22.382Z,10.6375
2023-01-05T11:14:16.851Z,9
2023-01-05T11:17:21.037Z,7.9
2023-01-05T11:21:18.320Z,13.85
2023-01-05T11:24:28.502Z,9.425
2023-01-05T11:27:24.035Z,8.4375
2023-01-05T11:31:17.162Z,9.85
2023-01-05T11:34:27.189Z,9.725
2023-01-05T11:37:24.421Z,14.725000000000001
2023-01-05T11:41:20.664Z,13.1125
2023-01-05T11:44:21.872Z,13.9875
2023-01-05T11:47:21.825Z,11.65
2023-01-05T11:51:33.144Z,11.5125
2023-01-05T11:54:34.391Z,13.549999999999999
2023-01-05T11:57:18.646Z,12.45
2023-01-05T12:01:41.870Z,16.925
2023-01-05T12:04:54.276Z,11.925
2023-01-05T12:07:28.374Z,12.0875
2023-01-05T12:11:19.213Z,15.1375
2023-01-05T12:14:32.245Z,16.325
2023-01-05T12:17:24.863Z,15.350000000000001
2023-01-05T12:21:22.843Z,11.4875
2023-01-05T12:24:36.135Z,11.0875
2023-01-05T12:27:33.939Z,9.975
2023-01-05T12:34:00.495Z,10.1625
2023-01-05T12:34:33.207Z,14.149999999999999
2023-01-05T12:37:31.143Z,7.8500000000000005
2023-01-05T12:41:43.641Z,7.6875
2023-01-05T12:44:38.044Z,7.8999999999999995
2023-01-05T12:47:31.798Z,14.4875
2023-01-05T12:51:22.243Z,10
2023-01-05T12:54:30.479Z,12.774999999999999
2023-01-05T12:57:25.550Z,12.474999999999998
2023-01-05T13:01:22.818Z,13.125
2023-01-05T13:04:37.846Z,12.875
2023-01-05T13:07:23.181Z,17.325000000000003
2023-01-05T13:11:23.683Z,16.4625
2023-01-05T13:14:19.684Z,16.650000000000002
2023-01-05T13:17:24.868Z,20.55
2023-01-05T13:21:18.238Z,19.212500000000002
2023-01-05T13:24:30.114Z,18.6875
2023-01-05T13:27:17.654Z,20.4375
2023-01-05T13:32:35.152Z,26.387500000000003
2023-01-05T13:34:29.981Z,18.299999999999997
2023-01-05T13:37:51.006Z,14.45
2023-01-05T13:41:29.951Z,16.525
2023-01-05T13:51:56.038Z,13.175
2023-01-05T17:51:16.290Z,20.2
2023-01-05T17:54:16.376Z,19.5375
2023-01-05T17:57:16.187Z,21.025
2023-01-05T18:01:17.511Z,26.5375
2023-01-05T18:04:17.107Z,24.775000000000002
2023-01-05T18:07:17.531Z,44.7
2023-01-05T18:11:17.638Z,34.4625
2023-01-05T18:14:16.518Z,43.475
2023-01-05T18:17:16.754Z,37.7625
2023-01-05T18:21:16.435Z,33.962500000000006
2023-01-05T18:24:16.851Z,31.0375
2023-01-05T18:27:17.048Z,37.1375
2023-01-05T18:31:16.818Z,26.0375
2023-01-05T18:34:17.449Z,28.225
2023-01-05T18:37:21.806Z,29.9375
2023-01-05T18:41:22.436Z,29.575000000000003
2023-01-05T18:44:16.699Z,35.5
2023-01-05T18:47:16.650Z,25.737499999999997
2023-01-05T18:51:16.376Z,26.4625
2023-01-05T18:54:16.714Z,26.5625
2023-01-05T18:57:16.689Z,31.6875
2023-01-05T19:01:17.811Z,30.950000000000003
2023-01-05T19:04:16.947Z,29.474999999999998
2023-01-05T19:07:16.550Z,29.675
2023-01-05T19:11:18.358Z,30.05
2023-01-05T19:14:16.643Z,26.575
2023-01-05T19:17:16.527Z,23.625
2023-01-05T19:21:16.295Z,29.525
2023-01-05T19:24:19.040Z,34.0125
2023-01-05T19:27:16.497Z,34.662499999999994
2023-01-05T19:31:18.189Z,26.325
2023-01-05T19:34:19.622Z,21.4625
2023-01-05T19:37:17.275Z,29.0625
2023-01-05T19:41:19.705Z,38.0125
2023-01-05T19:44:18.910Z,33.425
2023-01-05T19:47:17.089Z,34.6125
2023-01-05T19:51:18.215Z,31
2023-01-05T19:54:16.886Z,25.7875
2023-01-05T19:57:16.402Z,22.3125
2023-01-05T20:01:16.038Z,20.2875
2023-01-05T20:04:16.610Z,18.887500000000003
2023-01-05T20:07:16.631Z,26.025
2023-01-05T20:11:16.099Z,17.9375
2023-01-05T20:14:18.539Z,23.1
2023-01-05T20:17:16.260Z,18.425
2023-01-05T20:21:16.699Z,19.9625
2023-01-05T20:24:20.145Z,17.575
2023-01-05T20:27:18.982Z,16.8125
2023-01-05T20:31:19.517Z,16.450000000000003
2023-01-05T20:34:19.622Z,19.1625
2023-01-05T20:37:17.197Z,14.362499999999999
2023-01-05T20:41:18.768Z,17.612499999999997
2023-01-05T20:44:19.733Z,11.0375
2023-01-05T20:47:17.172Z,14.000000000000002
2023-01-05T20:51:17.855Z,14.4
2023-01-05T20:54:17.313Z,14.225
2023-01-05T20:57:17.168Z,13.525
2023-01-05T21:01:17.384Z,19.0375
2023-01-05T21:04:18.543Z,15.5125
2023-01-05T21:07:17.465Z,17.174999999999997
2023-01-05T21:11:17.802Z,18.0875
2023-01-05T21:14:16.690Z,19.4625
2023-01-05T21:17:16.879Z,15.9625
2023-01-05T21:21:18.864Z,19.1875
2023-01-05T21:24:16.912Z,19.275
2023-01-05T21:27:16.543Z,12.012500000000001
2023-01-05T21:31:19.159Z,17.0875
2023-01-05T21:34:16.609Z,12.6375
2023-01-05T21:37:16.762Z,17.5625
2023-01-05T21:41:16.500Z,16.775
2023-01-05T21:44:17.463Z,22.075
2023-01-05T21:47:16.875Z,27.5
2023-01-05T22:01:17.005Z,16.325
2023-01-05T22:04:17.199Z,14.725000000000001
2023-01-05T22:07:16.960Z,13.075
2023-01-05T22:11:16.694Z,11.325
2023-01-05T22:14:17.172Z,18.575000000000003
2023-01-05T22:17:16.989Z,19.5875
2023-01-05T22:21:17.262Z,16.15
2023-01-05T22:24:16.919Z,13.8375
2023-01-05T22:27:16.919Z,17.2875
2023-01-05T22:31:18.452Z,12.037500000000001
2023-01-05T22:34:17.021Z,11.2
2023-01-05T22:37:17.078Z,11.1875
2023-01-05T22:41:17.985Z,10.5
2023-01-05T22:44:16.457Z,13.7375
2023-01-05T22:47:16.183Z,16.75
2023-01-05T22:51:18.616Z,9.15
2023-01-05T22:54:17.351Z,11.1625
2023-01-05T22:57:17.086Z,9.7625
2023-01-05T23:01:21.564Z,13.95
2023-01-05T23:04:17.073Z,11.649999999999999
2023-01-05T23:07:20.975Z,15.2375
2023-01-05T23:11:19.989Z,14.75
2023-01-05T23:14:18.665Z,15.975000000000001
2023-01-05T23:17:17.044Z,10.7125
2023-01-05T23:21:18.742Z,13.25
2023-01-05T23:24:16.708Z,11.825
2023-01-05T23:27:16.884Z,11.299999999999999
2023-01-05T23:31:16.869Z,14.975000000000001
2023-01-05T23:34:16.951Z,14.1875
2023-01-05T23:37:16.777Z,13.3625
2023-01-05T23:41:17.408Z,10.7375
2023-01-05T23:44:17.452Z,10.2625
2023-01-05T23:47:17.027Z,10.2
2023-01-05T23:51:17.812Z,7.925000000000001
2023-01-05T23:54:16.895Z,9.5625
2023-01-05T23:57:16.759Z,11.45
